Time,TemperatureF,DewpointF,PressureIn,WindDirection,WindDirectionDegrees,WindSpeedMPH,WindSpeedGustMPH,Humidity,HourlyPrecipIn,Conditions,Clouds,dailyrainin,SoftwareType,DateUTC
2013-03-29 00:10:00,32.5,31.2,29.93,SW,225,0.0,1.0,95,0.00,,BKN110,0.00,VWS V14.00,2013-03-29 04:10:00,
2013-03-29 00:15:00,32.3,30.8,29.93,SW,225,0.0,1.0,94,0.00,,OVC075,0.00,VWS V14.00,2013-03-29 04:15:00,
2013-03-29 00:20:00,32.0,30.5,29.93,SW,225,0.0,1.0,94,0.00,,OVC075,0.00,VWS V14.00,2013-03-29 04:20:00,
2013-03-29 00:25:00,32.2,30.9,29.93,SW,225,0.0,1.0,95,0.00,,OVC075,0.00,VWS V14.00,2013-03-29 04:25:00,
2013-03-29 00:30:00,32.2,30.9,29.93,SW,225,0.0,0.0,95,0.00,,OVC075,0.00,VWS V14.00,2013-03-29 04:30:00,
2013-03-29 00:35:00,32.0,30.7,29.93,SW,225,0.0,0.0,95,0.00,,OVC075,0.00,VWS V14.00,2013-03-29 04:35:00,
2013-03-29 00:40:00,31.9,30.6,29.93,SW,225,0.0,0.0,95,0.00,,OVC075,0.00,VWS V14.00,2013-03-29 04:40:00,
2013-03-29 00:45:00,32.0,30.7,29.94,SW,225,0.0,0.0,95,0.00,,OVC075,0.00,VWS V14.00,2013-03-29 04:45:00,
2013-03-29 00:50:00,32.0,30.7,29.93,SW,225,0.0,1.0,95,0.00,,OVC075,0.00,VWS V14.00,2013-03-29 04:50:00,
2013-03-29 00:55:00,31.7,30.4,29.93,SW,225,0.0,1.0,95,0.00,,OVC075,0.00,VWS V14.00,2013-03-29 04:55:00,
2013-03-29 01:00:00,31.8,30.5,29.93,SW,225,0.0,0.0,95,0.00,,OVC110,0.00,VWS V14.00,2013-03-29 05:00:00,
2013-03-29 01:05:00,31.8,30.5,29.93,SW,225,0.0,0.0,95,0.00,,OVC110,0.00,VWS V14.00,2013-03-29 05:05:00,
2013-03-29 01:10:00,31.9,30.6,29.94,SW,225,0.0,0.0,95,0.00,,OVC110,0.00,VWS V14.00,2013-03-29 05:10:00,
2013-03-29 01:15:00,31.9,30.6,29.94,SW,225,0.0,0.0,95,0.00,,OVC110,0.00,VWS V14.00,2013-03-29 05:15:00,
2013-03-29 01:20:00,31.8,30.5,29.94,SW,225,0.0,0.0,95,0.00,,OVC110,0.00,VWS V14.00,2013-03-29 05:20:00,
2013-03-29 01:25:00,31.7,30.4,29.94,SW,225,0.0,0.0,95,0.00,,OVC110,0.00,VWS V14.00,2013-03-29 05:25:00,
2013-03-29 01:30:00,31.7,30.4,29.94,SW,225,0.0,0.0,95,0.00,,OVC110,0.00,VWS V14.00,2013-03-29 05:30:00,
2013-03-29 01:35:00,31.8,30.5,29.94,SW,225,0.0,0.0,95,0.00,,OVC110,0.00,VWS V14.00,2013-03-29 05:35:00,
2013-03-29 01:40:00,31.8,30.5,29.94,SW,225,0.0,0.0,95,0.00,,OVC110,0.00,VWS V14.00,2013-03-29 05:40:00,
2013-03-29 01:45:00,31.9,30.6,29.94,SW,225,0.0,0.0,95,0.00,,OVC110,0.00,VWS V14.00,2013-03-29 05:45:00,
2013-03-29 01:50:00,32.2,31.2,29.94,SW,225,0.0,0.0,96,0.00,,OVC110,0.00,VWS V14.00,2013-03-29 05:50:00,
2013-03-29 01:55:00,32.4,31.4,29.94,SW,225,0.0,0.0,96,0.00,,OVC110,0.00,VWS V14.00,2013-03-29 05:55:00,
2013-03-29 02:00:00,32.4,31.4,29.94,SW,225,0.0,0.0,96,0.00,,OVC055,0.00,VWS V14.00,2013-03-29 06:00:00,
2013-03-29 02:05:00,32.4,31.4,29.94,SW,225,0.0,0.0,96,0.00,,OVC055,0.00,VWS V14.00,2013-03-29 06:05:00,
2013-03-29 02:10:00,32.4,31.4,29.94,SW,225,0.0,0.0,96,0.00,,OVC055,0.00,VWS V14.00,2013-03-29 06:10:00,
2013-03-29 02:15:00,32.5,31.5,29.94,SW,225,0.0,0.0,96,0.00,,OVC055,0.00,VWS V14.00,2013-03-29 06:15:00,
2013-03-29 02:20:00,32.6,31.6,29.93,SW,225,0.0,0.0,96,0.00,,OVC055,0.00,VWS V14.00,2013-03-29 06:20:00,
2013-03-29 02:25:00,32.7,31.7,29.94,SW,225,0.0,0.0,96,0.00,,OVC055,0.00,VWS V14.00,2013-03-29 06:25:00,
2013-03-29 02:30:00,32.8,31.8,29.94,SW,225,0.0,0.0,96,0.00,,OVC055,0.00,VWS V14.00,2013-03-29 06:30:00,
2013-03-29 02:35:00,33.0,32.0,29.93,SW,225,0.0,0.0,96,0.00,,OVC055,0.00,VWS V14.00,2013-03-29 06:35:00,
2013-03-29 02:40:00,33.2,32.2,29.94,SW,225,0.0,0.0,96,0.00,,OVC055,0.00,VWS V14.00,2013-03-29 06:40:00,
2013-03-29 02:45:00,33.4,32.4,29.93,SW,225,0.0,0.0,96,0.00,,OVC055,0.00,VWS V14.00,2013-03-29 06:45:00,
2013-03-29 02:50:00,33.4,32.4,29.93,SW,225,0.0,0.0,96,0.00,,OVC055,0.00,VWS V14.00,2013-03-29 06:50:00,
2013-03-29 02:55:00,33.4,32.4,29.93,SW,225,0.0,0.0,96,0.00,,OVC055,0.00,VWS V14.00,2013-03-29 06:55:00,
2013-03-29 03:00:00,33.5,32.5,29.93,SW,225,0.0,0.0,96,0.00,,OVC060,0.00,VWS V14.00,2013-03-29 07:00:00,
2013-03-29 03:05:00,33.6,32.3,29.93,SW,225,0.0,1.0,95,0.00,,OVC060,0.00,VWS V14.00,2013-03-29 07:05:00,
2013-03-29 03:10:00,33.5,32.2,29.93,SW,225,0.0,1.0,95,0.00,,OVC060,0.00,VWS V14.00,2013-03-29 07:10:00,
2013-03-29 03:15:00,33.5,32.5,29.93,SW,225,0.0,1.0,96,0.00,,OVC060,0.00,VWS V14.00,2013-03-29 07:15:00,
2013-03-29 03:20:00,33.5,32.2,29.93,SW,225,0.0,1.0,95,0.00,,OVC060,0.00,VWS V14.00,2013-03-29 07:20:00,
2013-03-29 03:25:00,33.7,32.7,29.93,SW,225,0.0,1.0,96,0.00,,OVC060,0.00,VWS V14.00,2013-03-29 07:25:00,
2013-03-29 03:30:00,33.8,32.5,29.92,SW,225,0.0,0.0,95,0.00,,OVC060,0.00,VWS V14.00,2013-03-29 07:30:00,
2013-03-29 03:35:00,33.9,32.6,29.92,SW,225,0.0,1.0,95,0.00,,OVC060,0.00,VWS V14.00,2013-03-29 07:35:00,
2013-03-29 03:40:00,33.8,32.5,29.92,SW,225,0.0,1.0,95,0.00,,OVC060,0.00,VWS V14.00,2013-03-29 07:40:00,
2013-03-29 03:45:00,33.7,32.4,29.92,SW,225,0.0,1.0,95,0.00,,OVC060,0.00,VWS V14.00,2013-03-29 07:45:00,
2013-03-29 03:50:00,33.8,32.5,29.92,SW,225,0.0,1.0,95,0.00,,OVC060,0.00,VWS V14.00,2013-03-29 07:50:00,
2013-03-29 03:55:00,33.9,32.6,29.92,SW,225,0.0,1.0,95,0.00,,OVC060,0.00,VWS V14.00,2013-03-29 07:55:00,
2013-03-29 04:00:00,33.9,32.6,29.92,SW,225,0.0,0.0,95,0.00,,OVC043,0.00,VWS V14.00,2013-03-29 08:00:00,
2013-03-29 04:05:00,34.0,32.7,29.92,SW,225,0.0,0.0,95,0.00,,OVC043,0.00,VWS V14.00,2013-03-29 08:05:00,
2013-03-29 04:10:00,34.2,32.9,29.92,SW,225,0.0,0.0,95,0.00,,OVC043,0.00,VWS V14.00,2013-03-29 08:10:00,
2013-03-29 04:15:00,34.1,32.8,29.92,SW,225,0.0,0.0,95,0.00,,OVC043,0.00,VWS V14.00,2013-03-29 08:15:00,
2013-03-29 04:20:00,34.1,32.8,29.92,SW,225,0.0,1.0,95,0.00,,OVC043,0.00,VWS V14.00,2013-03-29 08:20:00,
2013-03-29 04:25:00,33.9,32.6,29.92,SW,225,0.0,1.0,95,0.00,,OVC043,0.00,VWS V14.00,2013-03-29 08:25:00,
2013-03-29 04:30:00,34.0,32.7,29.92,SW,225,0.0,0.0,95,0.00,,OVC043,0.00,VWS V14.00,2013-03-29 08:30:00,
2013-03-29 04:35:00,34.0,32.7,29.92,SW,225,0.0,0.0,95,0.00,,OVC043,0.00,VWS V14.00,2013-03-29 08:35:00,
2013-03-29 04:40:00,34.0,32.7,29.92,SW,225,0.0,0.0,95,0.00,,OVC043,0.00,VWS V14.00,2013-03-29 08:40:00,
2013-03-29 04:45:00,33.9,32.6,29.92,SW,225,0.0,0.0,95,0.00,,OVC043,0.00,VWS V14.00,2013-03-29 08:45:00,
2013-03-29 04:50:00,33.8,32.5,29.92,SW,225,0.0,0.0,95,0.00,,OVC043,0.00,VWS V14.00,2013-03-29 08:50:00,
2013-03-29 04:55:00,34.0,32.7,29.92,SW,225,0.0,0.0,95,0.00,,OVC043,0.00,VWS V14.00,2013-03-29 08:55:00,
2013-03-29 05:00:00,33.9,32.6,29.92,SW,225,0.0,0.0,95,0.00,,BKN085,0.00,VWS V14.00,2013-03-29 09:00:00,
2013-03-29 05:05:00,34.0,32.7,29.92,SW,225,0.0,0.0,95,0.00,,BKN085,0.00,VWS V14.00,2013-03-29 09:05:00,
2013-03-29 05:10:00,34.0,32.7,29.92,SW,225,0.0,0.0,95,0.00,,BKN085,0.00,VWS V14.00,2013-03-29 09:10:00,
2013-03-29 05:15:00,33.9,32.6,29.92,SW,225,0.0,0.0,95,0.00,,BKN085,0.00,VWS V14.00,2013-03-29 09:15:00,
2013-03-29 05:20:00,33.8,32.5,29.92,SW,225,0.0,0.0,95,0.00,,BKN085,0.00,VWS V14.00,2013-03-29 09:20:00,
2013-03-29 05:25:00,34.0,32.7,29.92,SW,225,0.0,0.0,95,0.00,,BKN085,0.00,VWS V14.00,2013-03-29 09:25:00,
2013-03-29 05:30:00,34.0,32.7,29.92,SW,225,0.0,0.0,95,0.00,,BKN085,0.00,VWS V14.00,2013-03-29 09:30:00,
2013-03-29 05:35:00,33.9,32.6,29.92,SW,225,0.0,0.0,95,0.00,,BKN085,0.00,VWS V14.00,2013-03-29 09:35:00,
2013-03-29 05:40:00,33.8,32.5,29.92,SW,225,0.0,0.0,95,0.00,,BKN085,0.00,VWS V14.00,2013-03-29 09:40:00,
2013-03-29 05:45:00,33.9,32.6,29.93,SW,225,0.0,1.0,95,0.00,,BKN085,0.00,VWS V14.00,2013-03-29 09:45:00,
2013-03-29 05:50:00,34.0,32.7,29.93,SW,225,0.0,1.0,95,0.00,,BKN085,0.00,VWS V14.00,2013-03-29 09:50:00,
2013-03-29 05:55:00,34.0,32.7,29.93,SW,225,0.0,1.0,95,0.00,,BKN085,0.00,VWS V14.00,2013-03-29 09:55:00,
2013-03-29 06:00:00,34.1,32.8,29.93,SW,225,0.0,0.0,95,0.00,,SCT090,0.00,VWS V14.00,2013-03-29 10:00:00,
2013-03-29 06:05:00,34.2,32.9,29.93,SW,225,0.0,0.0,95,0.00,,SCT090,0.00,VWS V14.00,2013-03-29 10:05:00,
2013-03-29 06:10:00,34.3,33.0,29.93,SW,225,0.0,0.0,95,0.00,,SCT090,0.00,VWS V14.00,2013-03-29 10:10:00,
2013-03-29 06:15:00,34.3,33.0,29.93,SW,225,0.0,0.0,95,0.00,,SCT090,0.00,VWS V14.00,2013-03-29 10:15:00,
2013-03-29 06:20:00,34.2,32.9,29.93,SW,225,0.0,0.0,95,0.00,,SCT090,0.00,VWS V14.00,2013-03-29 10:20:00,
2013-03-29 06:25:00,34.3,33.0,29.93,SW,225,0.0,0.0,95,0.00,,SCT090,0.00,VWS V14.00,2013-03-29 10:25:00,
2013-03-29 06:30:00,34.4,33.1,29.93,SW,225,0.0,0.0,95,0.00,,SCT090,0.00,VWS V14.00,2013-03-29 10:30:00,
2013-03-29 06:35:00,34.5,33.2,29.93,SW,225,0.0,0.0,95,0.00,,SCT090,0.00,VWS V14.00,2013-03-29 10:35:00,
2013-03-29 06:40:00,34.6,33.3,29.93,SW,225,0.0,0.0,95,0.00,,SCT090,0.00,VWS V14.00,2013-03-29 10:40:00,
2013-03-29 06:45:00,34.5,33.2,29.93,SW,225,0.0,0.0,95,0.00,,SCT090,0.00,VWS V14.00,2013-03-29 10:45:00,
2013-03-29 06:50:00,34.7,33.4,29.94,SW,225,0.0,0.0,95,0.00,,SCT090,0.00,VWS V14.00,2013-03-29 10:50:00,
2013-03-29 06:55:00,34.8,33.8,29.94,SW,225,0.0,0.0,96,0.00,,SCT090,0.00,VWS V14.00,2013-03-29 10:55:00,
2013-03-29 07:00:00,34.8,33.5,29.94,SW,225,0.0,1.0,95,0.00,,BKN090,0.00,VWS V14.00,2013-03-29 11:00:00,
2013-03-29 07:05:00,35.0,33.7,29.94,SW,225,0.0,1.0,95,0.00,,BKN090,0.00,VWS V14.00,2013-03-29 11:05:00,
2013-03-29 07:10:00,35.2,33.9,29.94,SW,225,0.0,1.0,95,0.00,,BKN090,0.00,VWS V14.00,2013-03-29 11:10:00,
2013-03-29 07:15:00,35.6,34.3,29.94,SW,225,0.0,1.0,95,0.00,,BKN090,0.00,VWS V14.00,2013-03-29 11:15:00,
2013-03-29 07:20:00,36.0,34.7,29.94,SW,225,0.0,2.0,95,0.00,,BKN090,0.00,VWS V14.00,2013-03-29 11:20:00,
2013-03-29 07:25:00,36.7,35.1,29.94,WNW,284,1.0,2.0,94,0.00,,BKN090,0.00,VWS V14.00,2013-03-29 11:25:00,
2013-03-29 07:30:00,37.3,35.5,29.94,WSW,252,0.0,2.0,93,0.00,,BKN090,0.00,VWS V14.00,2013-03-29 11:30:00,
2013-03-29 07:35:00,37.2,35.1,29.94,WSW,252,0.0,2.0,92,0.00,,BKN090,0.00,VWS V14.00,2013-03-29 11:35:00,
2013-03-29 07:40:00,37.6,35.5,29.94,WSW,252,0.0,2.0,92,0.00,,BKN090,0.00,VWS V14.00,2013-03-29 11:40:00,
2013-03-29 07:45:00,38.2,36.1,29.94,WSW,252,0.0,2.0,92,0.00,,BKN090,0.00,VWS V14.00,2013-03-29 11:45:00,
2013-03-29 07:50:00,38.7,36.0,29.94,WSW,252,0.0,2.0,90,0.00,,BKN090,0.00,VWS V14.00,2013-03-29 11:50:00,
2013-03-29 07:55:00,39.2,36.2,29.94,WSW,252,0.0,2.0,89,0.00,,BKN090,0.00,VWS V14.00,2013-03-29 11:55:00,
2013-03-29 08:00:00,39.8,36.5,29.94,WSW,252,0.0,1.0,88,0.00,,BKN041,0.00,VWS V14.00,2013-03-29 12:00:00,
2013-03-29 08:05:00,40.1,36.8,29.94,WSW,252,0.0,1.0,88,0.00,,BKN041,0.00,VWS V14.00,2013-03-29 12:05:00,
2013-03-29 08:10:00,40.5,37.2,29.94,WSW,252,0.0,1.0,88,0.00,,BKN041,0.00,VWS V14.00,2013-03-29 12:10:00,
2013-03-29 08:15:00,41.1,37.2,29.94,WSW,252,1.0,3.0,86,0.00,,BKN041,0.00,VWS V14.00,2013-03-29 12:15:00,
2013-03-29 08:20:00,41.9,37.7,29.94,WSW,242,2.0,4.0,85,0.00,,BKN041,0.00,VWS V14.00,2013-03-29 12:20:00,
2013-03-29 08:25:00,42.9,37.5,29.94,SW,235,3.0,4.0,81,0.00,,BKN041,0.00,VWS V14.00,2013-03-29 12:25:00,
2013-03-29 08:30:00,43.2,37.5,29.94,SW,235,0.0,1.0,80,0.00,,BKN041,0.00,VWS V14.00,2013-03-29 12:30:00,
2013-03-29 08:35:00,43.5,37.4,29.94,West,259,3.0,10.0,79,0.00,,BKN041,0.00,VWS V14.00,2013-03-29 12:35:00,
2013-03-29 08:40:00,43.3,37.9,29.94,West,259,0.0,10.0,81,0.00,,BKN041,0.00,VWS V14.00,2013-03-29 12:40:00,
2013-03-29 08:45:00,43.8,37.4,29.94,WSW,244,4.0,10.0,78,0.00,,BKN041,0.00,VWS V14.00,2013-03-29 12:45:00,
2013-03-29 08:50:00,44.7,38.6,29.94,WSW,247,3.0,10.0,79,0.00,,BKN041,0.00,VWS V14.00,2013-03-29 12:50:00,
2013-03-29 08:55:00,45.5,37.7,29.94,West,265,3.0,10.0,74,0.00,,BKN041,0.00,VWS V14.00,2013-03-29 12:55:00,
2013-03-29 09:00:00,45.8,37.7,29.94,West,280,3.0,6.0,73,0.00,,BKN090,0.00,VWS V14.00,2013-03-29 13:00:00,
2013-03-29 09:05:00,46.1,37.6,29.94,WSW,250,5.0,8.0,72,0.00,,BKN090,0.00,VWS V14.00,2013-03-29 13:05:00,
2013-03-29 09:10:00,46.5,38.3,29.94,SSW,192,1.0,9.0,73,0.00,,BKN090,0.00,VWS V14.00,2013-03-29 13:10:00,
2013-03-29 09:15:00,47.0,38.5,29.94,West,271,1.0,9.0,72,0.00,,BKN090,0.00,VWS V14.00,2013-03-29 13:15:00,
2013-03-29 09:20:00,47.6,38.0,29.94,WSW,252,2.0,9.0,69,0.00,,BKN090,0.00,VWS V14.00,2013-03-29 13:20:00,
2013-03-29 09:25:00,47.7,38.4,29.93,West,264,2.0,9.0,70,0.00,,BKN090,0.00,VWS V14.00,2013-03-29 13:25:00,
2013-03-29 09:30:00,48.0,38.3,29.94,NNW,348,3.0,5.0,69,0.00,,BKN090,0.00,VWS V14.00,2013-03-29 13:30:00,
2013-03-29 09:35:00,49.1,38.6,29.94,West,279,1.0,7.0,67,0.00,,BKN090,0.00,VWS V14.00,2013-03-29 13:35:00,
2013-03-29 09:40:00,49.2,38.7,29.94,West,259,4.0,7.0,67,0.00,,BKN090,0.00,VWS V14.00,2013-03-29 13:40:00,
2013-03-29 09:45:00,49.2,38.0,29.94,SSW,212,4.0,10.0,65,0.00,,BKN090,0.00,VWS V14.00,2013-03-29 13:45:00,
2013-03-29 09:50:00,49.4,38.5,29.94,SW,227,0.0,10.0,66,0.00,,BKN090,0.00,VWS V14.00,2013-03-29 13:50:00,
2013-03-29 09:55:00,50.2,38.1,29.94,NNW,336,1.0,10.0,63,0.00,,BKN090,0.00,VWS V14.00,2013-03-29 13:55:00,
2013-03-29 10:00:00,50.5,38.8,29.94,SW,219,4.0,7.0,64,0.00,,BKN070,0.00,VWS V14.00,2013-03-29 14:00:00,
2013-03-29 10:05:00,51.1,39.0,29.94,NW,304,3.0,10.0,63,0.00,,BKN070,0.00,VWS V14.00,2013-03-29 14:05:00,
2013-03-29 10:10:00,51.9,38.5,29.94,West,273,6.0,10.0,60,0.00,,BKN070,0.00,VWS V14.00,2013-03-29 14:10:00,
2013-03-29 10:15:00,52.1,37.3,29.94,WNW,297,1.0,10.0,57,0.00,,BKN070,0.00,VWS V14.00,2013-03-29 14:15:00,
2013-03-29 10:20:00,52.7,38.3,29.94,West,267,3.0,10.0,58,0.00,,BKN070,0.00,VWS V14.00,2013-03-29 14:20:00,
2013-03-29 10:25:00,52.4,37.6,29.94,NNW,327,2.0,12.0,57,0.00,,BKN070,0.00,VWS V14.00,2013-03-29 14:25:00,
2013-03-29 10:30:00,52.4,37.6,29.93,NNW,328,1.0,5.0,57,0.00,,BKN070,0.00,VWS V14.00,2013-03-29 14:30:00,
2013-03-29 10:35:00,53.0,37.3,29.94,NNW,327,4.0,9.0,55,0.00,,BKN070,0.00,VWS V14.00,2013-03-29 14:35:00,
2013-03-29 10:40:00,52.2,36.5,29.94,North,349,0.0,9.0,55,0.00,,BKN070,0.00,VWS V14.00,2013-03-29 14:40:00,
2013-03-29 10:45:00,52.7,37.9,29.94,WSW,252,9.0,10.0,57,0.00,,BKN070,0.00,VWS V14.00,2013-03-29 14:45:00,
2013-03-29 10:50:00,52.5,37.7,29.93,West,264,1.0,13.0,57,0.00,,BKN070,0.00,VWS V14.00,2013-03-29 14:50:00,
2013-03-29 10:55:00,53.1,37.8,29.93,WNW,294,7.0,13.0,56,0.00,,BKN070,0.00,VWS V14.00,2013-03-29 14:55:00,
2013-03-29 11:00:00,53.5,37.3,29.94,WSW,239,0.0,6.0,54,0.00,,BKN070,0.00,VWS V14.00,2013-03-29 15:00:00,
2013-03-29 11:05:00,53.4,36.2,29.94,WNW,282,4.0,8.0,52,0.00,,BKN070,0.00,VWS V14.00,2013-03-29 15:05:00,
2013-03-29 11:10:00,53.4,36.7,29.94,WNW,292,5.0,8.0,53,0.00,,BKN070,0.00,VWS V14.00,2013-03-29 15:10:00,
2013-03-29 11:15:00,53.4,35.7,29.93,NNE,17,3.0,17.0,51,0.00,,BKN070,0.00,VWS V14.00,2013-03-29 15:15:00,
2013-03-29 11:20:00,54.2,36.0,29.93,WNW,291,5.0,17.0,50,0.00,,BKN070,0.00,VWS V14.00,2013-03-29 15:20:00,
2013-03-29 11:25:00,54.6,36.3,29.93,West,269,5.0,17.0,50,0.00,,BKN070,0.00,VWS V14.00,2013-03-29 15:25:00,
2013-03-29 11:30:00,55.0,36.2,29.93,East,95,1.0,7.0,49,0.00,,BKN070,0.00,VWS V14.00,2013-03-29 15:30:00,
2013-03-29 11:35:00,54.4,35.1,29.93,West,267,6.0,8.0,48,0.00,,BKN070,0.00,VWS V14.00,2013-03-29 15:35:00,
2013-03-29 11:40:00,54.5,34.7,29.93,WNW,302,4.0,8.0,47,0.00,,BKN070,0.00,VWS V14.00,2013-03-29 15:40:00,
2013-03-29 11:45:00,54.2,35.0,29.93,West,270,2.0,8.0,48,0.00,,BKN070,0.00,VWS V14.00,2013-03-29 15:45:00,
2013-03-29 11:50:00,54.3,36.1,29.93,WSW,257,3.0,8.0,50,0.00,,BKN070,0.00,VWS V14.00,2013-03-29 15:50:00,
2013-03-29 11:55:00,54.6,34.2,29.93,West,273,0.0,8.0,46,0.00,,BKN070,0.00,VWS V14.00,2013-03-29 15:55:00,
2013-03-29 12:00:00,55.6,34.0,29.92,West,269,8.0,8.0,44,0.00,,BKN070,0.00,VWS V14.00,2013-03-29 16:00:00,
2013-03-29 12:05:00,55.7,35.3,29.92,NE,55,3.0,9.0,46,0.00,,BKN090,0.00,VWS V14.00,2013-03-29 16:05:00,
2013-03-29 12:10:00,55.0,33.5,29.92,WSW,246,4.0,12.0,44,0.00,,BKN090,0.00,VWS V14.00,2013-03-29 16:10:00,
2013-03-29 12:15:00,54.8,32.8,29.92,ENE,61,2.0,12.0,43,0.00,,BKN090,0.00,VWS V14.00,2013-03-29 16:15:00,
2013-03-29 12:20:00,55.0,32.9,29.92,NE,51,6.0,12.0,43,0.00,,BKN090,0.00,VWS V14.00,2013-03-29 16:20:00,
2013-03-29 12:25:00,55.8,34.2,29.92,WSW,244,6.0,12.0,44,0.00,,BKN090,0.00,VWS V14.00,2013-03-29 16:25:00,
2013-03-29 12:30:00,56.0,33.2,29.92,NW,304,2.0,6.0,42,0.00,,BKN090,0.00,VWS V14.00,2013-03-29 16:30:00,
2013-03-29 12:35:00,54.9,32.8,29.92,NNW,336,4.0,10.0,43,0.00,,BKN090,0.00,VWS V14.00,2013-03-29 16:35:00,
2013-03-29 12:40:00,54.3,32.3,29.91,SW,229,2.0,10.0,43,0.00,,BKN090,0.00,VWS V14.00,2013-03-29 16:40:00,
2013-03-29 12:45:00,55.7,32.4,29.91,North,350,2.0,11.0,41,0.00,,BKN090,0.00,VWS V14.00,2013-03-29 16:45:00,
2013-03-29 12:50:00,55.3,31.4,29.91,WSW,257,2.0,13.0,40,0.00,,BKN090,0.00,VWS V14.00,2013-03-29 16:50:00,
2013-03-29 12:55:00,55.8,32.5,29.92,NNW,336,2.0,13.0,41,0.00,,BKN090,0.00,VWS V14.00,2013-03-29 16:55:00,
2013-03-29 13:00:00,56.9,32.2,29.91,WNW,296,3.0,14.0,39,0.00,,BKN090,0.00,VWS V14.00,2013-03-29 17:00:00,
2013-03-29 13:05:00,55.7,31.8,29.92,East,90,1.0,14.0,40,0.00,,BKN090,0.00,VWS V14.00,2013-03-29 17:05:00,
2013-03-29 13:10:00,54.6,32.0,29.91,WSW,240,9.0,14.0,42,0.00,,BKN090,0.00,VWS V14.00,2013-03-29 17:10:00,
2013-03-29 13:15:00,54.2,31.0,29.91,WNW,291,2.0,14.0,41,0.00,,BKN090,0.00,VWS V14.00,2013-03-29 17:15:00,
2013-03-29 13:20:00,54.6,31.4,29.91,WSW,240,5.0,14.0,41,0.00,,BKN090,0.00,VWS V14.00,2013-03-29 17:20:00,
2013-03-29 13:25:00,54.7,32.1,29.91,NW,305,8.0,14.0,42,0.00,,BKN090,0.00,VWS V14.00,2013-03-29 17:25:00,
2013-03-29 13:30:00,55.0,32.3,29.91,WSW,258,6.0,6.0,42,0.00,,BKN090,0.00,VWS V14.00,2013-03-29 17:30:00,
2013-03-29 13:35:00,54.8,31.0,29.91,NNE,27,4.0,14.0,40,0.00,,BKN090,0.00,VWS V14.00,2013-03-29 17:35:00,
2013-03-29 13:40:00,54.3,31.1,29.91,West,261,3.0,14.0,41,0.00,,BKN090,0.00,VWS V14.00,2013-03-29 17:40:00,
2013-03-29 13:45:00,54.2,29.8,29.91,NNW,327,2.0,14.0,39,0.00,,BKN090,0.00,VWS V14.00,2013-03-29 17:45:00,
2013-03-29 13:50:00,54.0,30.2,29.91,WSW,257,3.0,14.0,40,0.00,,BKN090,0.00,VWS V14.00,2013-03-29 17:50:00,
2013-03-29 13:55:00,54.3,29.9,29.91,West,276,4.0,14.0,39,0.00,,BKN090,0.00,VWS V14.00,2013-03-29 17:55:00,
2013-03-29 14:00:00,54.0,29.6,29.91,NNW,327,1.0,6.0,39,0.00,,BKN090,0.00,VWS V14.00,2013-03-29 18:00:00,
2013-03-29 14:05:00,53.5,29.8,29.91,North,9,1.0,10.0,40,0.00,,OVC085,0.00,VWS V14.00,2013-03-29 18:05:00,
2013-03-29 14:10:00,53.2,30.1,29.91,NW,309,2.0,10.0,41,0.00,,OVC085,0.00,VWS V14.00,2013-03-29 18:10:00,
2013-03-29 14:15:00,53.4,29.7,29.90,West,273,4.0,12.0,40,0.00,,OVC085,0.00,VWS V14.00,2013-03-29 18:15:00,
2013-03-29 14:20:00,53.5,31.0,29.90,West,275,2.0,12.0,42,0.00,,OVC085,0.00,VWS V14.00,2013-03-29 18:20:00,
2013-03-29 14:25:00,53.5,30.4,29.90,SW,219,3.0,12.0,41,0.00,,OVC085,0.00,VWS V14.00,2013-03-29 18:25:00,
2013-03-29 14:30:00,53.6,31.7,29.90,West,271,7.0,13.0,43,0.00,,OVC085,0.00,VWS V14.00,2013-03-29 18:30:00,
2013-03-29 14:35:00,53.6,30.5,29.90,West,264,5.0,13.0,41,0.00,,OVC085,0.00,VWS V14.00,2013-03-29 18:35:00,
2013-03-29 14:40:00,53.7,30.6,29.90,NNW,332,0.0,13.0,41,0.00,,OVC085,0.00,VWS V14.00,2013-03-29 18:40:00,
2013-03-29 14:45:00,53.9,30.8,29.90,West,279,2.0,14.0,41,0.00,,OVC085,0.00,VWS V14.00,2013-03-29 18:45:00,
2013-03-29 14:50:00,53.9,31.4,29.90,NW,326,0.0,14.0,42,0.00,,OVC085,0.00,VWS V14.00,2013-03-29 18:50:00,
2013-03-29 14:55:00,55.0,31.8,29.90,NNW,328,7.0,14.0,41,0.00,,OVC085,0.00,VWS V14.00,2013-03-29 18:55:00,
2013-03-29 15:00:00,55.0,32.3,29.90,WNW,284,8.0,10.0,42,0.00,,OVC085,0.00,VWS V14.00,2013-03-29 19:00:00,
2013-03-29 15:05:00,53.9,30.8,29.90,NNW,335,3.0,16.0,41,0.00,,OVC080,0.00,VWS V14.00,2013-03-29 19:05:00,
2013-03-29 15:10:00,53.9,30.8,29.90,SSE,148,4.0,16.0,41,0.00,,OVC080,0.00,VWS V14.00,2013-03-29 19:10:00,
2013-03-29 15:15:00,53.8,31.3,29.90,NE,42,3.0,16.0,42,0.00,,OVC080,0.00,VWS V14.00,2013-03-29 19:15:00,
2013-03-29 15:20:00,55.0,31.1,29.90,WNW,296,7.0,16.0,40,0.00,,OVC080,0.00,VWS V14.00,2013-03-29 19:20:00,
2013-03-29 15:25:00,54.2,30.4,29.89,WNW,291,6.0,16.0,40,0.00,,OVC080,0.00,VWS V14.00,2013-03-29 19:25:00,
2013-03-29 15:30:00,53.5,31.0,29.90,SW,223,6.0,10.0,42,0.00,,OVC080,0.00,VWS V14.00,2013-03-29 19:30:00,
2013-03-29 15:35:00,53.2,30.7,29.90,NW,314,5.0,10.0,42,0.00,,OVC080,0.00,VWS V14.00,2013-03-29 19:35:00,
2013-03-29 15:40:00,53.3,31.4,29.90,SSW,207,2.0,10.0,43,0.00,,OVC080,0.00,VWS V14.00,2013-03-29 19:40:00,
2013-03-29 15:45:00,53.9,31.4,29.89,WSW,238,4.0,10.0,42,0.00,,OVC080,0.00,VWS V14.00,2013-03-29 19:45:00,
2013-03-29 15:50:00,53.6,31.1,29.89,South,185,1.0,10.0,42,0.00,,OVC080,0.00,VWS V14.00,2013-03-29 19:50:00,
2013-03-29 15:55:00,54.3,31.7,29.89,SW,232,5.0,11.0,42,0.00,,OVC080,0.00,VWS V14.00,2013-03-29 19:55:00,
2013-03-29 16:00:00,53.9,31.4,29.89,West,271,4.0,8.0,42,0.00,,OVC080,0.00,VWS V14.00,2013-03-29 20:00:00,
2013-03-29 16:05:00,53.3,30.8,29.90,SW,233,5.0,8.0,42,0.00,,OVC080,0.00,VWS V14.00,2013-03-29 20:05:00,
2013-03-29 16:10:00,53.0,31.7,29.90,SW,236,0.0,8.0,44,0.00,,OVC080,0.00,VWS V14.00,2013-03-29 20:10:00,
2013-03-29 16:15:00,52.9,31.0,29.90,West,273,4.0,10.0,43,0.00,,OVC080,0.00,VWS V14.00,2013-03-29 20:15:00,
2013-03-29 16:20:00,52.6,30.8,29.90,West,267,1.0,10.0,43,0.00,,OVC080,0.00,VWS V14.00,2013-03-29 20:20:00,
2013-03-29 16:25:00,53.2,31.9,29.89,West,263,5.0,10.0,44,0.00,,OVC080,0.00,VWS V14.00,2013-03-29 20:25:00,
2013-03-29 16:30:00,54.1,31.5,29.90,North,5,4.0,10.0,42,0.00,,OVC080,0.00,VWS V14.00,2013-03-29 20:30:00,
2013-03-29 16:35:00,53.6,31.1,29.90,NNW,337,4.0,15.0,42,0.00,,OVC080,0.00,VWS V14.00,2013-03-29 20:35:00,
2013-03-29 16:40:00,53.2,31.3,29.90,WSW,258,5.0,15.0,43,0.00,,OVC080,0.00,VWS V14.00,2013-03-29 20:40:00,
2013-03-29 16:45:00,52.6,30.8,29.90,NNW,346,1.0,15.0,43,0.00,,OVC080,0.00,VWS V14.00,2013-03-29 20:45:00,
2013-03-29 16:50:00,52.4,31.1,29.90,West,262,5.0,15.0,44,0.00,,OVC080,0.00,VWS V14.00,2013-03-29 20:50:00,
2013-03-29 16:55:00,52.2,31.5,29.90,WNW,293,0.0,15.0,45,0.00,,OVC080,0.00,VWS V14.00,2013-03-29 20:55:00,
2013-03-29 17:00:00,52.1,31.4,29.90,West,271,3.0,7.0,45,0.00,,OVC090,0.00,VWS V14.00,2013-03-29 21:00:00,
2013-03-29 17:05:00,51.9,31.2,29.90,West,263,1.0,8.0,45,0.00,,OVC090,0.00,VWS V14.00,2013-03-29 21:05:00,
2013-03-29 17:10:00,51.7,31.1,29.90,SSW,211,3.0,8.0,45,0.00,,OVC090,0.00,VWS V14.00,2013-03-29 21:10:00,
2013-03-29 17:15:00,51.5,30.9,29.90,West,265,0.0,8.0,45,0.00,,OVC090,0.00,VWS V14.00,2013-03-29 21:15:00,
2013-03-29 17:20:00,51.4,30.8,29.90,WSW,256,8.0,8.0,45,0.00,,OVC090,0.00,VWS V14.00,2013-03-29 21:20:00,
2013-03-29 17:25:00,51.4,31.3,29.90,WNW,286,1.0,8.0,46,0.00,,OVC090,0.00,VWS V14.00,2013-03-29 21:25:00,
2013-03-29 17:30:00,51.2,31.7,29.90,NW,317,1.0,8.0,47,0.00,,OVC090,0.00,VWS V14.00,2013-03-29 21:30:00,
2013-03-29 17:35:00,51.2,31.1,29.90,West,279,1.0,8.0,46,0.00,,OVC090,0.00,VWS V14.00,2013-03-29 21:35:00,
2013-03-29 17:40:00,51.0,31.5,29.91,WSW,243,6.0,8.0,47,0.00,,OVC090,0.00,VWS V14.00,2013-03-29 21:40:00,
2013-03-29 17:45:00,51.0,31.0,29.91,SW,220,5.0,11.0,46,0.00,,OVC090,0.00,VWS V14.00,2013-03-29 21:45:00,
2013-03-29 17:50:00,50.9,30.9,29.91,West,263,0.0,11.0,46,0.00,,OVC090,0.00,VWS V14.00,2013-03-29 21:50:00,
2013-03-29 17:55:00,50.8,30.8,29.91,West,265,6.0,11.0,46,0.00,,OVC090,0.00,VWS V14.00,2013-03-29 21:55:00,
2013-03-29 18:00:00,50.7,31.2,29.91,WNW,295,2.0,8.0,47,0.00,,OVC090,0.00,VWS V14.00,2013-03-29 22:00:00,
2013-03-29 18:05:00,50.5,31.6,29.91,WNW,296,5.0,8.0,48,0.00,,BKN095,0.00,VWS V14.00,2013-03-29 22:05:00,
2013-03-29 18:10:00,50.5,31.6,29.92,NW,304,0.0,8.0,48,0.00,,BKN095,0.00,VWS V14.00,2013-03-29 22:10:00,
2013-03-29 18:15:00,50.3,31.4,29.92,WNW,297,5.0,8.0,48,0.00,,BKN095,0.00,VWS V14.00,2013-03-29 22:15:00,
2013-03-29 18:20:00,50.1,31.7,29.92,NW,310,1.0,8.0,49,0.00,,BKN095,0.00,VWS V14.00,2013-03-29 22:20:00,
2013-03-29 18:25:00,49.9,32.0,29.92,West,259,2.0,8.0,50,0.00,,BKN095,0.00,VWS V14.00,2013-03-29 22:25:00,
2013-03-29 18:30:00,49.7,31.8,29.92,SW,234,0.0,3.0,50,0.00,,BKN095,0.00,VWS V14.00,2013-03-29 22:30:00,
2013-03-29 18:35:00,49.5,31.6,29.92,WNW,288,0.0,5.0,50,0.00,,BKN095,0.00,VWS V14.00,2013-03-29 22:35:00,
2013-03-29 18:40:00,49.2,31.9,29.92,WNW,295,3.0,5.0,51,0.00,,BKN095,0.00,VWS V14.00,2013-03-29 22:40:00,
2013-03-29 18:45:00,48.9,32.1,29.92,WNW,298,1.0,5.0,52,0.00,,BKN095,0.00,VWS V14.00,2013-03-29 22:45:00,
2013-03-29 18:50:00,48.6,31.8,29.92,West,264,3.0,7.0,52,0.00,,BKN095,0.00,VWS V14.00,2013-03-29 22:50:00,
2013-03-29 18:55:00,48.6,31.3,29.93,North,360,3.0,7.0,51,0.00,,BKN095,0.00,VWS V14.00,2013-03-29 22:55:00,
2013-03-29 19:00:00,48.4,30.6,29.93,West,267,0.0,7.0,50,0.00,,BKN095,0.00,VWS V14.00,2013-03-29 23:00:00,
2013-03-29 19:05:00,48.3,30.5,29.93,WNW,295,2.0,7.0,50,0.00,,SCT095,0.00,VWS V14.00,2013-03-29 23:05:00,
2013-03-29 19:10:00,48.1,30.4,29.93,WSW,248,3.0,7.0,50,0.00,,SCT095,0.00,VWS V14.00,2013-03-29 23:10:00,
2013-03-29 19:15:00,47.8,30.1,29.93,WNW,298,5.0,7.0,50,0.00,,SCT095,0.00,VWS V14.00,2013-03-29 23:15:00,
2013-03-29 19:20:00,47.6,30.4,29.93,West,281,0.0,7.0,51,0.00,,SCT095,0.00,VWS V14.00,2013-03-29 23:20:00,
2013-03-29 19:25:00,47.3,30.6,29.93,WSW,258,0.0,7.0,52,0.00,,SCT095,0.00,VWS V14.00,2013-03-29 23:25:00,
2013-03-29 19:30:00,47.1,30.4,29.93,NNE,17,0.0,2.0,52,0.00,,SCT095,0.00,VWS V14.00,2013-03-29 23:30:00,
2013-03-29 19:35:00,46.9,30.7,29.93,NNE,17,0.0,2.0,53,0.00,,SCT095,0.00,VWS V14.00,2013-03-29 23:35:00,
2013-03-29 19:40:00,46.4,30.7,29.94,NNE,17,2.0,2.0,54,0.00,,SCT095,0.00,VWS V14.00,2013-03-29 23:40:00,
2013-03-29 19:45:00,46.3,31.0,29.94,NNE,17,0.0,2.0,55,0.00,,SCT095,0.00,VWS V14.00,2013-03-29 23:45:00,
2013-03-29 19:50:00,45.9,31.5,29.94,NNE,17,0.0,2.0,57,0.00,,SCT095,0.00,VWS V14.00,2013-03-29 23:50:00,
2013-03-29 19:55:00,45.5,31.6,29.94,West,274,0.0,2.0,58,0.00,,SCT095,0.00,VWS V14.00,2013-03-29 23:55:00,
2013-03-29 20:00:00,45.1,31.2,29.94,West,274,0.0,1.0,58,0.00,,FEW095,0.00,VWS V14.00,2013-03-30 00:00:00,
2013-03-29 20:05:00,44.9,31.0,29.94,West,274,0.0,1.0,58,0.00,,FEW095,0.00,VWS V14.00,2013-03-30 00:05:00,
2013-03-29 20:10:00,44.6,31.6,29.94,West,274,0.0,2.0,60,0.00,,FEW095,0.00,VWS V14.00,2013-03-30 00:10:00,
2013-03-29 20:15:00,43.9,31.3,29.95,West,274,0.0,2.0,61,0.00,,FEW095,0.00,VWS V14.00,2013-03-30 00:15:00,
2013-03-29 20:20:00,43.3,31.6,29.95,West,274,0.0,2.0,63,0.00,,FEW095,0.00,VWS V14.00,2013-03-30 00:20:00,
2013-03-29 20:25:00,42.7,31.4,29.95,West,274,0.0,2.0,64,0.00,,FEW095,0.00,VWS V14.00,2013-03-30 00:25:00,
2013-03-29 20:30:00,42.2,31.3,29.95,West,274,0.0,0.0,65,0.00,,FEW095,0.00,VWS V14.00,2013-03-30 00:30:00,
2013-03-29 20:35:00,41.6,31.5,29.95,West,274,0.0,0.0,67,0.00,,FEW095,0.00,VWS V14.00,2013-03-30 00:35:00,
2013-03-29 20:40:00,41.3,31.2,29.95,West,274,0.0,0.0,67,0.00,,FEW095,0.00,VWS V14.00,2013-03-30 00:40:00,
2013-03-29 20:45:00,40.9,30.8,29.95,West,274,0.0,0.0,67,0.00,,FEW095,0.00,VWS V14.00,2013-03-30 00:45:00,
2013-03-29 20:50:00,40.2,31.6,29.96,West,274,0.0,1.0,71,0.00,,FEW095,0.00,VWS V14.00,2013-03-30 00:50:00,
2013-03-29 20:55:00,39.8,31.2,29.95,West,274,0.0,1.0,71,0.00,,FEW095,0.00,VWS V14.00,2013-03-30 00:55:00,
2013-03-29 21:00:00,39.4,31.5,29.96,West,274,0.0,1.0,73,0.00,,FEW095,0.00,VWS V14.00,2013-03-30 01:00:00,
2013-03-29 21:05:00,39.0,31.8,29.96,West,274,0.0,1.0,75,0.00,,FEW090,0.00,VWS V14.00,2013-03-30 01:05:00,
2013-03-29 21:10:00,38.5,31.3,29.96,West,274,0.0,1.0,75,0.00,,FEW090,0.00,VWS V14.00,2013-03-30 01:10:00,
2013-03-29 21:15:00,38.2,31.3,29.96,West,274,0.0,1.0,76,0.00,,FEW090,0.00,VWS V14.00,2013-03-30 01:15:00,
2013-03-29 21:20:00,37.9,31.0,29.96,West,274,0.0,1.0,76,0.00,,FEW090,0.00,VWS V14.00,2013-03-30 01:20:00,
2013-03-29 21:25:00,37.6,30.7,29.96,West,274,0.0,1.0,76,0.00,,FEW090,0.00,VWS V14.00,2013-03-30 01:25:00,
2013-03-29 21:30:00,37.4,30.5,29.96,West,274,0.0,0.0,76,0.00,,FEW090,0.00,VWS V14.00,2013-03-30 01:30:00,
2013-03-29 21:35:00,37.2,30.4,29.96,West,274,0.0,0.0,76,0.00,,FEW090,0.00,VWS V14.00,2013-03-30 01:35:00,
2013-03-29 21:40:00,37.1,30.6,29.96,West,274,0.0,0.0,77,0.00,,FEW090,0.00,VWS V14.00,2013-03-30 01:40:00,
2013-03-29 21:45:00,36.8,30.6,29.97,West,274,0.0,0.0,78,0.00,,FEW090,0.00,VWS V14.00,2013-03-30 01:45:00,
2013-03-29 21:50:00,36.7,32.0,29.97,West,274,0.0,0.0,83,0.00,,FEW090,0.00,VWS V14.00,2013-03-30 01:50:00,
2013-03-29 21:55:00,36.4,30.5,29.97,West,274,0.0,0.0,79,0.00,,FEW090,0.00,VWS V14.00,2013-03-30 01:55:00,
2013-03-29 22:00:00,36.2,30.6,29.97,West,274,0.0,0.0,80,0.00,,FEW090,0.00,VWS V14.00,2013-03-30 02:00:00,
2013-03-29 22:05:00,35.9,30.6,29.97,West,274,0.0,0.0,81,0.00,,FEW090,0.00,VWS V14.00,2013-03-30 02:05:00,
2013-03-29 22:10:00,35.5,30.6,29.97,West,274,0.0,0.0,82,0.00,,FEW090,0.00,VWS V14.00,2013-03-30 02:10:00,
2013-03-29 22:15:00,35.3,30.4,29.97,West,274,0.0,1.0,82,0.00,,FEW090,0.00,VWS V14.00,2013-03-30 02:15:00,
2013-03-29 22:20:00,35.2,30.3,29.97,West,274,0.0,1.0,82,0.00,,FEW090,0.00,VWS V14.00,2013-03-30 02:20:00,
2013-03-29 22:25:00,35.1,30.2,29.97,West,274,0.0,1.0,82,0.00,,FEW090,0.00,VWS V14.00,2013-03-30 02:25:00,
2013-03-29 22:30:00,34.9,30.3,29.97,West,274,0.0,0.0,83,0.00,,FEW090,0.00,VWS V14.00,2013-03-30 02:30:00,
2013-03-29 22:35:00,34.6,30.0,29.97,West,274,0.0,0.0,83,0.00,,FEW090,0.00,VWS V14.00,2013-03-30 02:35:00,
2013-03-29 22:40:00,34.4,29.8,29.97,West,274,0.0,0.0,83,0.00,,FEW090,0.00,VWS V14.00,2013-03-30 02:40:00,
2013-03-29 22:45:00,34.4,29.5,29.97,West,274,0.0,1.0,82,0.00,,FEW090,0.00,VWS V14.00,2013-03-30 02:45:00,
2013-03-29 22:50:00,34.5,29.6,29.97,West,274,0.0,1.0,82,0.00,,FEW090,0.00,VWS V14.00,2013-03-30 02:50:00,
2013-03-29 22:55:00,34.6,29.7,29.97,West,274,0.0,1.0,82,0.00,,FEW090,0.00,VWS V14.00,2013-03-30 02:55:00,
2013-03-29 23:00:00,34.6,30.0,29.97,West,274,0.0,1.0,83,0.00,,FEW090,0.00,VWS V14.00,2013-03-30 03:00:00,
2013-03-29 23:05:00,34.3,30.0,29.97,West,274,0.0,1.0,84,0.00,,SCT090,0.00,VWS V14.00,2013-03-30 03:05:00,
2013-03-29 23:10:00,33.9,29.6,29.97,West,274,0.0,1.0,84,0.00,,SCT090,0.00,VWS V14.00,2013-03-30 03:10:00,
2013-03-29 23:15:00,33.9,29.6,29.97,West,274,0.0,1.0,84,0.00,,SCT090,0.00,VWS V14.00,2013-03-30 03:15:00,
2013-03-29 23:20:00,34.0,29.4,29.97,West,274,0.0,1.0,83,0.00,,SCT090,0.00,VWS V14.00,2013-03-30 03:20:00,
2013-03-29 23:25:00,33.9,29.6,29.97,West,274,0.0,1.0,84,0.00,,SCT090,0.00,VWS V14.00,2013-03-30 03:25:00,
2013-03-29 23:30:00,33.8,29.5,29.97,West,274,0.0,0.0,84,0.00,,SCT090,0.00,VWS V14.00,2013-03-30 03:30:00,
2013-03-29 23:35:00,33.6,29.6,29.97,West,274,0.0,1.0,85,0.00,,SCT090,0.00,VWS V14.00,2013-03-30 03:35:00,
2013-03-29 23:40:00,33.5,29.2,29.97,West,274,0.0,1.0,84,0.00,,SCT090,0.00,VWS V14.00,2013-03-30 03:40:00,
2013-03-29 23:45:00,33.6,29.0,29.97,West,274,0.0,1.0,83,0.00,,SCT090,0.00,VWS V14.00,2013-03-30 03:45:00,
2013-03-29 23:50:00,33.6,29.3,29.97,West,274,0.0,1.0,84,0.00,,SCT090,0.00,VWS V14.00,2013-03-30 03:50:00,
2013-03-29 23:55:00,33.6,29.6,29.97,West,274,0.0,1.0,85,0.00,,SCT090,0.00,VWS V14.00,2013-03-30 03:55:00,